createdAt,value
2018-09-22T00:00:26.536Z,51.55
2018-09-22T00:02:55.714Z,52.05
2018-09-22T00:05:24.987Z,51.78
2018-09-22T00:07:54.216Z,51.49
2018-09-22T00:10:23.440Z,51.59
2018-09-22T00:12:52.671Z,51.94
2018-09-22T00:15:21.899Z,52.25
2018-09-22T00:17:51.117Z,52.42
2018-09-22T00:20:20.400Z,52.95
2018-09-22T00:22:49.642Z,52.35
2018-09-22T00:25:18.842Z,52.44
2018-09-22T00:27:48.020Z,52.73
2018-09-22T00:30:17.611Z,52.18
2018-09-22T00:32:46.814Z,52.44
2018-09-22T00:35:16.879Z,52.64
2018-09-22T00:37:46.076Z,52.20
2018-09-22T00:40:16.931Z,52.23
2018-09-22T00:42:46.116Z,52.12
2018-09-22T00:45:16.920Z,52.08
2018-09-22T00:47:46.864Z,52.89
2018-09-22T00:50:18.019Z,52.29
2018-09-22T00:52:47.227Z,52.63
2018-09-22T00:55:18.468Z,52.30
2018-09-22T00:57:47.717Z,51.88
2018-09-22T01:00:17.781Z,50.93
2018-09-22T01:02:46.981Z,51.62
2018-09-22T01:05:17.648Z,51.45
2018-09-22T01:07:46.855Z,52.06
2018-09-22T01:10:17.020Z,51.32
2018-09-22T01:12:46.208Z,51.39
2018-09-22T01:15:16.785Z,50.58
2018-09-22T01:17:45.973Z,51.35
2018-09-22T01:20:16.819Z,52.06
2018-09-22T01:22:46.037Z,51.11
2018-09-22T01:25:16.397Z,51.73
2018-09-22T01:27:45.619Z,51.36
2018-09-22T01:30:16.842Z,51.52
2018-09-22T01:32:46.063Z,51.84
2018-09-22T01:35:16.443Z,52.25
2018-09-22T01:37:45.614Z,51.82
2018-09-22T01:40:16.445Z,52.75
2018-09-22T01:42:45.728Z,52.63
2018-09-22T01:45:15.984Z,53.25
2018-09-22T01:47:45.186Z,52.59
2018-09-22T01:50:15.931Z,52.31
2018-09-22T01:52:45.145Z,52.63
2018-09-22T01:55:15.010Z,52.75
2018-09-22T01:57:44.178Z,52.59
2018-09-22T02:00:15.427Z,53.06
2018-09-22T02:02:44.644Z,52.17
2018-09-22T02:05:15.300Z,52.39
2018-09-22T02:07:44.634Z,51.80
2018-09-22T02:10:15.471Z,52.28
2018-09-22T02:12:44.665Z,52.17
2018-09-22T02:15:15.128Z,52.68
2018-09-22T02:17:44.324Z,53.51
2018-09-22T02:20:14.201Z,52.74
2018-09-22T02:22:43.407Z,53.42
2018-09-22T02:25:13.175Z,53.79
2018-09-22T02:27:42.410Z,53.97
2018-09-22T02:30:12.407Z,53.91
2018-09-22T02:32:41.598Z,53.74
2018-09-22T02:35:10.868Z,53.09
2018-09-22T02:37:40.084Z,52.75
2018-09-22T02:40:09.306Z,53.32
2018-09-22T02:42:38.548Z,53.86
2018-09-22T02:45:08.084Z,54.11
2018-09-22T02:47:37.345Z,53.40
2018-09-22T02:50:06.602Z,53.48
2018-09-22T02:52:35.800Z,53.83
2018-09-22T02:55:05.232Z,53.69
2018-09-22T02:57:34.428Z,53.72
2018-09-22T03:00:03.724Z,54.35
2018-09-22T03:02:32.923Z,54.06
2018-09-22T03:07:42.139Z,54.23
2018-09-22T03:10:11.707Z,54.43
2018-09-22T03:12:41.511Z,54.38
2018-09-22T03:15:10.805Z,55.49
2018-09-22T03:17:40.020Z,54.66
2018-09-22T03:20:09.389Z,54.56
2018-09-22T03:22:38.571Z,53.79
2018-09-22T03:25:07.835Z,53.38
2018-09-22T03:27:39.879Z,53.97
2018-09-22T03:30:09.288Z,53.85
2018-09-22T03:32:38.660Z,53.68
2018-09-22T03:35:07.909Z,53.68
2018-09-22T03:37:37.117Z,53.13
2018-09-22T03:40:06.544Z,53.53
2018-09-22T03:42:35.741Z,53.29
2018-09-22T03:45:05.055Z,53.30
2018-09-22T03:47:34.252Z,53.15
2018-09-22T03:50:03.467Z,53.69
2018-09-22T03:52:32.905Z,53.47
2018-09-22T03:55:02.106Z,53.79
2018-09-22T03:57:31.300Z,54.04
2018-09-22T04:00:00.483Z,53.93
2018-09-22T04:02:29.768Z,53.94
2018-09-22T04:04:59.000Z,53.66
2018-09-22T04:07:28.214Z,53.83
2018-09-22T04:09:57.430Z,54.69
2018-09-22T04:12:26.771Z,54.39
2018-09-22T04:14:55.951Z,54.06
2018-09-22T04:17:25.214Z,54.08
2018-09-22T04:19:54.540Z,54.71
2018-09-22T04:22:23.753Z,54.66
2018-09-22T04:24:52.932Z,54.56
2018-09-22T04:27:22.148Z,54.14
2018-09-22T04:29:51.406Z,53.83
2018-09-22T04:32:20.628Z,53.69
2018-09-22T04:34:49.862Z,54.27
2018-09-22T04:37:19.081Z,54.57
2018-09-22T04:39:48.243Z,55.03
2018-09-22T04:42:17.440Z,54.31
2018-09-22T04:44:46.636Z,54.70
2018-09-22T04:47:15.867Z,55.05
2018-09-22T04:49:45.084Z,54.27
2018-09-22T04:52:14.317Z,54.92
2018-09-22T04:54:43.469Z,55.36
2018-09-22T04:57:12.705Z,55.31
2018-09-22T04:59:41.946Z,54.94
2018-09-22T05:02:11.350Z,54.95
2018-09-22T05:04:40.564Z,54.81
2018-09-22T05:07:10.096Z,54.85
2018-09-22T05:09:39.267Z,55.33
2018-09-22T05:12:08.927Z,54.77
2018-09-22T05:14:38.153Z,54.78
2018-09-22T05:17:07.744Z,54.63
2018-09-22T05:19:37.043Z,55.18
2018-09-22T05:22:06.298Z,55.27
2018-09-22T05:24:35.518Z,55.07
2018-09-22T05:27:05.084Z,55.26
2018-09-22T05:29:34.518Z,55.76
2018-09-22T05:32:03.815Z,55.23
2018-09-22T05:34:33.064Z,55.11
2018-09-22T05:37:02.328Z,55.29
2018-09-22T05:39:31.644Z,55.94
2018-09-22T05:42:00.919Z,55.97
2018-09-22T05:44:30.113Z,55.27
2018-09-22T05:46:59.319Z,55.85
2018-09-22T05:49:28.523Z,55.22
2018-09-22T05:51:57.729Z,55.77
2018-09-22T05:54:26.890Z,55.79
2018-09-22T05:56:56.146Z,54.53
2018-09-22T05:59:25.311Z,54.94
2018-09-22T06:01:54.620Z,55.13
2018-09-22T06:04:23.808Z,55.03
2018-09-22T06:06:53.097Z,54.60
2018-09-22T06:09:22.376Z,54.35
2018-09-22T06:11:51.612Z,54.67
2018-09-22T06:14:20.820Z,54.61
2018-09-22T06:16:50.159Z,54.66
2018-09-22T06:19:19.357Z,53.81
2018-09-22T06:21:48.908Z,53.34
2018-09-22T06:24:18.104Z,53.44
2018-09-22T06:26:47.376Z,53.09
2018-09-22T06:29:16.595Z,52.85
2018-09-22T06:31:45.874Z,52.69
2018-09-22T06:34:15.067Z,52.66
2018-09-22T06:36:44.310Z,52.42
2018-09-22T06:39:13.506Z,52.04
2018-09-22T06:41:42.780Z,52.71
2018-09-22T06:44:12.053Z,52.25
2018-09-22T06:46:41.227Z,52.47
2018-09-22T06:49:10.409Z,52.71
2018-09-22T06:51:39.639Z,51.82
2018-09-22T06:54:09.276Z,52.01
2018-09-22T06:56:38.508Z,53.14
2018-09-22T06:59:08.099Z,52.24
2018-09-22T07:01:37.396Z,52.01
2018-09-22T07:04:07.002Z,50.92
2018-09-22T07:06:36.215Z,50.63
2018-09-22T07:09:07.179Z,48.96
2018-09-22T07:11:36.432Z,48.62
2018-09-22T07:14:05.640Z,47.93
2018-09-22T07:16:34.855Z,47.27
2018-09-22T07:19:04.051Z,48.16
2018-09-22T07:21:38.467Z,48.24
2018-09-22T07:24:08.089Z,48.35
2018-09-22T07:26:37.310Z,49.23
2018-09-22T07:29:06.567Z,49.18
2018-09-22T07:31:35.840Z,49.53
2018-09-22T07:34:05.967Z,48.64
2018-09-22T07:36:35.227Z,48.55
2018-09-22T07:39:06.471Z,48.84
2018-09-22T07:41:35.707Z,48.41
2018-09-22T07:44:04.973Z,48.39
2018-09-22T07:46:34.271Z,47.44
2018-09-22T07:49:03.695Z,48.03
2018-09-22T07:51:32.988Z,47.79
2018-09-22T07:54:02.244Z,47.55
2018-09-22T07:56:31.467Z,46.75
2018-09-22T07:59:31.040Z,46.90
2018-09-22T08:02:00.359Z,46.31
2018-09-22T08:04:29.580Z,46.41
2018-09-22T08:06:59.783Z,46.64
2018-09-22T08:09:28.942Z,45.13
2018-09-22T08:11:58.203Z,44.97
2018-09-22T08:14:27.363Z,44.39
2018-09-22T08:16:56.607Z,43.57
2018-09-22T08:19:25.819Z,43.73
2018-09-22T08:21:55.213Z,43.71
2018-09-22T08:24:24.454Z,43.60
2018-09-22T08:26:53.742Z,43.09
2018-09-22T08:29:23.043Z,43.39
2018-09-22T08:31:52.495Z,43.85
2018-09-22T08:34:21.722Z,42.78
2018-09-22T08:36:51.087Z,43.17
2018-09-22T08:39:20.188Z,43.01
2018-09-22T08:41:49.434Z,43.04
2018-09-22T08:44:18.617Z,43.74
2018-09-22T08:46:47.879Z,43.31
2018-09-22T08:49:17.115Z,43.95
2018-09-22T08:51:46.347Z,43.59
2018-09-22T08:54:15.555Z,43.00
2018-09-22T08:56:44.805Z,43.71
2018-09-22T08:59:14.070Z,44.07
2018-09-22T09:01:43.342Z,43.67
2018-09-22T09:04:12.573Z,43.53
2018-09-22T09:06:41.778Z,43.29
2018-09-22T09:09:11.342Z,44.06
2018-09-22T09:11:40.610Z,43.25
2018-09-22T09:14:10.314Z,43.79
2018-09-22T09:16:39.529Z,44.10
2018-09-22T09:19:09.179Z,43.33
2018-09-22T09:21:38.412Z,44.48
2018-09-22T09:24:08.069Z,44.87
2018-09-22T09:26:37.330Z,43.82
2018-09-22T09:29:06.628Z,43.87
2018-09-22T09:31:35.874Z,44.23
2018-09-22T09:34:05.084Z,43.19
2018-09-22T09:36:34.395Z,43.99
2018-09-22T09:39:05.280Z,43.09
2018-09-22T09:41:34.471Z,42.51
2018-09-22T09:44:03.694Z,41.85
2018-09-22T09:46:32.948Z,41.74
2018-09-22T09:49:02.192Z,40.99
2018-09-22T09:51:31.407Z,41.60
2018-09-22T09:54:00.669Z,42.39
2018-09-22T09:56:29.938Z,41.39
2018-09-22T09:58:59.302Z,41.56
2018-09-22T10:01:29.920Z,41.81
2018-09-22T10:04:00.235Z,41.52
2018-09-22T10:06:30.644Z,42.54
2018-09-22T10:09:01.147Z,41.94
2018-09-22T10:11:31.687Z,41.87
2018-09-22T10:14:02.262Z,42.33
2018-09-22T10:16:31.709Z,42.05
2018-09-22T10:19:00.931Z,41.55
2018-09-22T10:21:30.158Z,41.83
2018-09-22T10:23:59.466Z,42.96
2018-09-22T10:26:28.667Z,41.02
2018-09-22T10:28:57.903Z,41.68
2018-09-22T10:31:27.119Z,42.25
2018-09-22T10:33:56.487Z,41.58
2018-09-22T10:36:25.720Z,40.30
2018-09-22T10:38:54.948Z,39.48
2018-09-22T10:41:24.196Z,39.85
2018-09-22T10:43:53.440Z,40.19
2018-09-22T10:46:22.672Z,40.01
2018-09-22T10:48:51.971Z,39.63
2018-09-22T10:51:21.143Z,38.98
2018-09-22T10:53:51.396Z,39.80
2018-09-22T10:56:20.662Z,39.61
2018-09-22T10:58:49.887Z,40.54
2018-09-22T11:01:19.097Z,40.50
2018-09-22T11:03:48.438Z,40.20
2018-09-22T11:06:17.663Z,40.28
2018-09-22T11:08:46.881Z,41.37
2018-09-22T11:11:16.119Z,40.85
2018-09-22T11:13:45.342Z,39.81
2018-09-22T11:16:14.578Z,39.56
2018-09-22T11:18:43.863Z,39.23
2018-09-22T11:21:13.139Z,38.46
2018-09-22T11:23:42.332Z,40.10
2018-09-22T11:26:11.545Z,39.91
2018-09-22T11:28:40.813Z,39.15
2018-09-22T11:31:10.722Z,39.13
2018-09-22T11:33:39.920Z,37.59
2018-09-22T11:36:09.756Z,38.74
2018-09-22T11:38:38.968Z,37.53
2018-09-22T11:41:08.818Z,38.62
2018-09-22T11:43:38.055Z,38.26
2018-09-22T11:46:07.831Z,37.62
2018-09-22T11:48:37.019Z,37.63
2018-09-22T11:51:06.633Z,37.11
2018-09-22T11:53:35.836Z,38.12
2018-09-22T11:56:05.094Z,38.24
2018-09-22T11:58:34.254Z,38.63
2018-09-22T12:01:03.945Z,38.05
2018-09-22T12:03:33.154Z,39.25
2018-09-22T12:06:02.496Z,38.31
2018-09-22T12:08:31.678Z,38.35
2018-09-22T12:11:00.891Z,37.42
2018-09-22T12:13:30.064Z,37.16
2018-09-22T12:15:59.312Z,37.39
2018-09-22T12:18:28.511Z,37.42
2018-09-22T12:20:57.767Z,37.12
2018-09-22T12:23:26.948Z,37.56
2018-09-22T12:25:56.186Z,37.36
2018-09-22T12:28:25.410Z,36.65
2018-09-22T12:30:54.619Z,37.78
2018-09-22T12:33:24.004Z,37.35
2018-09-22T12:35:53.270Z,37.24
2018-09-22T12:38:22.699Z,37.55
2018-09-22T12:40:51.959Z,36.72
2018-09-22T12:43:21.163Z,36.70
2018-09-22T12:45:50.372Z,35.77
2018-09-22T12:48:19.594Z,36.43
2018-09-22T12:50:48.837Z,36.57
2018-09-22T12:53:18.032Z,36.94
2018-09-22T12:55:47.239Z,36.20
2018-09-22T12:58:16.437Z,35.01
2018-09-22T13:00:45.759Z,35.48
2018-09-22T13:03:14.963Z,36.52
2018-09-22T13:05:44.223Z,36.49
2018-09-22T13:08:13.424Z,35.76
2018-09-22T13:10:42.683Z,35.22
2018-09-22T13:13:12.139Z,35.43
2018-09-22T13:15:41.380Z,36.44
2018-09-22T13:18:10.560Z,36.24
2018-09-22T13:20:39.944Z,36.81
2018-09-22T13:23:09.420Z,36.97
2018-09-22T13:25:38.682Z,37.15
2018-09-22T13:28:08.248Z,37.36
2018-09-22T13:30:37.486Z,36.65
2018-09-22T13:33:06.988Z,37.43
2018-09-22T13:35:36.194Z,38.04
2018-09-22T13:38:05.475Z,36.90
2018-09-22T13:40:34.757Z,36.78
2018-09-22T13:43:04.001Z,36.76
2018-09-22T13:45:33.207Z,37.17
2018-09-22T13:48:02.426Z,36.79
2018-09-22T13:50:31.673Z,36.13
2018-09-22T13:53:00.960Z,36.43
2018-09-22T13:55:30.179Z,36.29
2018-09-22T13:57:59.391Z,36.76
2018-09-22T14:00:28.620Z,36.36
2018-09-22T14:02:57.836Z,36.23
2018-09-22T14:05:27.087Z,36.96
2018-09-22T14:07:56.287Z,35.95
2018-09-22T14:10:25.522Z,36.02
2018-09-22T14:12:54.730Z,35.81
2018-09-22T14:15:23.953Z,36.31
2018-09-22T14:17:53.165Z,36.15
2018-09-22T14:20:23.832Z,36.41
2018-09-22T14:22:53.073Z,35.75
2018-09-22T14:25:22.335Z,37.03
2018-09-22T14:27:51.590Z,36.14
2018-09-22T14:30:20.840Z,35.99
2018-09-22T14:32:50.131Z,36.55
2018-09-22T14:35:19.449Z,36.62
2018-09-22T14:37:48.691Z,36.87
2018-09-22T14:40:17.944Z,35.99
2018-09-22T14:42:47.204Z,36.52
2018-09-22T14:45:16.436Z,37.08
2018-09-22T14:47:45.651Z,37.38
2018-09-22T14:50:14.927Z,36.85
2018-09-22T14:52:44.114Z,37.12
2018-09-22T14:55:13.379Z,36.85
2018-09-22T14:57:42.633Z,36.75
2018-09-22T15:00:12.193Z,36.77
2018-09-22T15:02:41.423Z,36.26
2018-09-22T15:05:12.657Z,36.22
2018-09-22T15:07:41.879Z,36.68
2018-09-22T15:10:12.274Z,37.12
2018-09-22T15:12:41.487Z,36.51
2018-09-22T15:15:12.100Z,37.12
2018-09-22T15:17:41.348Z,36.44
2018-09-22T15:20:12.038Z,36.59
2018-09-22T15:22:41.374Z,37.63
2018-09-22T15:25:11.635Z,36.58
2018-09-22T15:27:40.897Z,36.87
2018-09-22T15:30:11.311Z,38.09
2018-09-22T15:32:40.647Z,38.50
2018-09-22T15:35:11.020Z,38.81
2018-09-22T15:37:40.330Z,39.12
2018-09-22T15:40:10.001Z,38.11
2018-09-22T15:42:39.205Z,37.93
2018-09-22T15:45:10.144Z,38.75
2018-09-22T15:47:39.416Z,38.15
2018-09-22T15:50:09.133Z,38.11
2018-09-22T15:52:38.363Z,38.58
2018-09-22T15:55:08.991Z,37.95
2018-09-22T15:57:38.211Z,37.58
2018-09-22T16:00:09.329Z,38.16
2018-09-22T16:02:38.568Z,37.11
2018-09-22T16:05:09.119Z,37.05
2018-09-22T16:07:38.406Z,36.33
2018-09-22T16:10:07.834Z,36.69
2018-09-22T16:12:37.099Z,36.27
2018-09-22T16:15:06.433Z,35.94
2018-09-22T16:17:35.654Z,35.52
2018-09-22T16:20:04.931Z,36.64
2018-09-22T16:22:34.141Z,36.33
2018-09-22T16:25:03.346Z,37.15
2018-09-22T16:27:32.530Z,38.10
2018-09-22T16:30:01.723Z,39.02
2018-09-22T16:32:30.948Z,38.44
2018-09-22T16:35:00.174Z,38.82
2018-09-22T16:37:30.481Z,39.00
2018-09-22T16:39:59.979Z,38.41
2018-09-22T16:42:29.752Z,39.02
2018-09-22T16:44:58.938Z,38.82
2018-09-22T16:47:28.187Z,39.48
2018-09-22T16:49:57.323Z,40.59
2018-09-22T16:52:26.892Z,41.15
2018-09-22T16:54:56.072Z,42.78
2018-09-22T16:57:25.284Z,43.39
2018-09-22T16:59:54.512Z,44.28
2018-09-22T17:02:23.683Z,44.10
2018-09-22T17:04:52.867Z,45.04
2018-09-22T17:07:22.097Z,45.51
2018-09-22T17:09:51.355Z,44.41
2018-09-22T17:12:20.684Z,44.98
2018-09-22T17:14:49.897Z,45.26
2018-09-22T17:17:19.272Z,46.16
2018-09-22T17:19:48.475Z,46.28
2018-09-22T17:22:17.646Z,46.19
2018-09-22T17:24:46.900Z,45.76
2018-09-22T17:27:16.126Z,46.00
2018-09-22T17:29:45.383Z,45.91
2018-09-22T17:32:14.621Z,45.07
2018-09-22T17:34:43.904Z,45.68
2018-09-22T17:37:13.206Z,45.57
2018-09-22T17:39:42.443Z,44.35
2018-09-22T17:42:12.025Z,45.87
2018-09-22T17:44:41.473Z,47.25
2018-09-22T17:47:10.701Z,47.20
2018-09-22T17:49:41.946Z,49.01
2018-09-22T17:52:11.300Z,48.56
2018-09-22T17:54:41.313Z,49.99
2018-09-22T17:57:10.582Z,51.63
2018-09-22T17:59:39.844Z,52.17
2018-09-22T18:02:09.158Z,52.99
2018-09-22T18:04:38.363Z,52.77
2018-09-22T18:07:07.625Z,53.55
2018-09-22T18:09:36.789Z,54.11
2018-09-22T18:12:06.036Z,54.73
2018-09-22T18:14:35.227Z,55.24
2018-09-22T18:17:04.464Z,54.79
2018-09-22T18:19:33.640Z,55.32
2018-09-22T18:22:02.883Z,55.36
2018-09-22T18:24:32.069Z,55.55
2018-09-22T18:27:01.369Z,55.15
2018-09-22T18:29:30.800Z,55.08
2018-09-22T18:32:00.000Z,55.97
2018-09-22T18:34:29.168Z,54.77
2018-09-22T18:36:58.491Z,55.93
2018-09-22T18:39:27.782Z,55.44
2018-09-22T18:41:57.011Z,55.77
2018-09-22T18:44:26.204Z,54.97
2018-09-22T18:46:55.464Z,55.87
2018-09-22T18:49:24.882Z,55.82
2018-09-22T18:51:54.127Z,55.50
2018-09-22T18:54:23.315Z,55.29
2018-09-22T18:56:52.569Z,55.12
2018-09-22T18:59:21.775Z,55.60
2018-09-22T19:01:51.012Z,55.41
2018-09-22T19:04:20.259Z,56.52
2018-09-22T19:06:50.378Z,56.27
2018-09-22T19:09:19.679Z,56.02
2018-09-22T19:11:48.919Z,55.44
2018-09-22T19:14:21.381Z,54.50
2018-09-22T19:17:02.729Z,53.87
2018-09-22T19:19:35.592Z,54.53
2018-09-22T19:22:10.854Z,54.96
2018-09-22T19:24:43.508Z,54.85
2018-09-22T19:27:30.560Z,53.72
2018-09-22T19:30:33.123Z,53.43
2018-09-22T19:33:05.918Z,53.91
2018-09-22T19:35:38.357Z,53.88
2018-09-22T19:40:17.673Z,52.60
2018-09-22T19:42:50.771Z,53.51
2018-09-22T19:45:27.213Z,54.28
2018-09-22T19:47:59.831Z,54.28
2018-09-22T19:50:34.204Z,54.71
2018-09-22T19:53:03.433Z,54.33
2018-09-22T19:55:32.691Z,54.01
2018-09-22T19:58:02.024Z,54.38
2018-09-22T20:00:31.158Z,55.38
2018-09-22T20:03:00.366Z,55.92
2018-09-22T20:05:29.655Z,56.03
2018-09-22T20:07:58.923Z,56.92
2018-09-22T20:10:29.441Z,57.95
2018-09-22T20:12:58.707Z,57.03
2018-09-22T20:15:28.068Z,56.67
2018-09-22T20:17:57.304Z,57.74
2018-09-22T20:20:26.571Z,57.58
2018-09-22T20:22:55.970Z,57.41
2018-09-22T20:25:25.211Z,58.00
2018-09-22T20:27:54.436Z,58.92
2018-09-22T20:30:23.766Z,58.49
2018-09-22T20:32:53.856Z,59.11
2018-09-22T20:35:23.124Z,58.98
2018-09-22T20:37:52.343Z,59.32
2018-09-22T20:40:21.569Z,59.00
2018-09-22T20:42:50.750Z,59.42
2018-09-22T20:45:20.034Z,59.97
2018-09-22T20:47:49.275Z,60.51
2018-09-22T20:50:18.725Z,60.29
2018-09-22T20:52:47.956Z,60.85
2018-09-22T20:55:17.607Z,61.49
2018-09-22T20:57:46.876Z,61.36
2018-09-22T21:00:17.723Z,61.42
2018-09-22T21:02:46.944Z,61.17
2018-09-22T21:05:17.447Z,61.50
2018-09-22T21:07:46.700Z,62.33
2018-09-22T21:10:17.509Z,62.72
2018-09-22T21:12:46.754Z,62.83
2018-09-22T21:15:17.485Z,62.15
2018-09-22T21:17:46.694Z,62.17
2018-09-22T21:20:17.224Z,62.65
2018-09-22T21:22:46.406Z,62.90
2018-09-22T21:25:17.312Z,62.89
2018-09-22T21:27:46.526Z,63.12
2018-09-22T21:30:17.125Z,63.00
2018-09-22T21:32:46.314Z,62.68
2018-09-22T21:35:16.768Z,62.63
2018-09-22T21:37:46.016Z,63.91
2018-09-22T21:40:16.372Z,63.30
2018-09-22T21:42:45.637Z,62.71
2018-09-22T21:45:16.457Z,63.33
2018-09-22T21:47:45.683Z,63.37
2018-09-22T21:50:15.649Z,63.95
2018-09-22T21:52:44.842Z,63.58
2018-09-22T21:55:15.190Z,63.33
2018-09-22T21:57:44.415Z,63.27
2018-09-22T22:00:15.484Z,64.09
2018-09-22T22:02:44.695Z,64.40
2018-09-22T22:05:15.112Z,63.65
2018-09-22T22:07:44.320Z,63.75
2018-09-22T22:10:15.721Z,63.12
2018-09-22T22:12:44.940Z,63.14
2018-09-22T22:15:14.807Z,63.38
2018-09-22T22:17:44.012Z,64.36
2018-09-22T22:20:14.862Z,62.74
2018-09-22T22:22:44.119Z,62.37
2018-09-22T22:25:14.305Z,63.20
2018-09-22T22:27:43.496Z,63.42
2018-09-22T22:30:14.290Z,63.57
2018-09-22T22:32:43.448Z,62.85
2018-09-22T22:35:13.698Z,63.16
2018-09-22T22:37:42.918Z,63.23
2018-09-22T22:40:12.108Z,64.36
2018-09-22T22:42:41.359Z,62.76
2018-09-22T22:45:10.591Z,63.82
2018-09-22T22:47:39.782Z,63.80
2018-09-22T22:50:09.061Z,63.50
2018-09-22T22:52:38.283Z,63.81
2018-09-22T22:55:07.598Z,64.39
2018-09-22T22:57:36.935Z,63.19
2018-09-22T23:00:06.598Z,63.19
2018-09-22T23:02:36.036Z,63.39
2018-09-22T23:05:05.390Z,63.86
2018-09-22T23:07:34.636Z,63.54
2018-09-22T23:10:03.931Z,62.79
2018-09-22T23:12:33.225Z,62.56
2018-09-22T23:15:02.494Z,62.88
2018-09-22T23:17:31.718Z,63.16
2018-09-22T23:20:00.913Z,63.92
2018-09-22T23:22:30.181Z,64.17
2018-09-22T23:24:59.383Z,63.44
2018-09-22T23:27:28.590Z,63.45
2018-09-22T23:29:57.778Z,64.52
2018-09-22T23:32:26.974Z,64.67
2018-09-22T23:34:56.197Z,65.39
2018-09-22T23:37:25.377Z,65.99
2018-09-22T23:39:54.614Z,65.02
2018-09-22T23:42:23.870Z,65.39
2018-09-22T23:44:53.261Z,66.54
2018-09-22T23:47:22.504Z,66.25
2018-09-22T23:49:51.727Z,66.48
2018-09-22T23:52:21.171Z,66.92
2018-09-22T23:54:50.441Z,67.41
2018-09-22T23:57:19.683Z,67.48
2018-09-22T23:59:48.887Z,66.58
